createdAt,value
2023-04-23T00:01:06.853Z,100.00
2023-04-23T00:02:42.384Z,100.00
2023-04-23T00:03:34.688Z,100.00
2023-04-23T00:06:11.024Z,100.00
2023-04-23T00:07:42.298Z,100.00
2023-04-23T00:08:42.388Z,100.00
2023-04-23T00:11:10.323Z,100.00
2023-04-23T00:12:42.281Z,100.00
2023-04-23T00:13:37.574Z,100.00
2023-04-23T00:16:04.767Z,100.00
2023-04-23T00:17:42.352Z,100.00
2023-04-23T00:18:31.334Z,100.00
2023-04-23T00:20:58.022Z,100.00
2023-04-23T00:22:42.285Z,100.00
2023-04-23T00:23:24.500Z,100.00
2023-04-23T00:25:50.963Z,100.00
2023-04-23T00:27:42.294Z,100.00
2023-04-23T00:28:17.393Z,100.00
2023-04-23T00:30:44.103Z,100.00
2023-04-23T00:32:42.310Z,100.00
2023-04-23T00:33:10.585Z,100.00
2023-04-23T00:35:36.979Z,100.00
2023-04-23T00:37:42.305Z,100.00
2023-04-23T00:38:03.335Z,100.00
2023-04-23T00:40:29.638Z,100.00
2023-04-23T00:42:42.300Z,100.00
2023-04-23T00:42:56.260Z,100.00
2023-04-23T00:45:22.728Z,100.00
2023-04-23T00:47:42.291Z,100.00
2023-04-23T00:47:49.849Z,100.00
2023-04-23T00:50:16.286Z,100.00
2023-04-23T00:52:42.747Z,100.00
2023-04-23T00:52:43.340Z,100.00
2023-04-23T00:55:09.434Z,100.00
2023-04-23T00:57:39.608Z,100.00
2023-04-23T00:57:42.276Z,100.00
2023-04-23T01:00:07.381Z,100.00
2023-04-23T01:02:36.632Z,100.00
2023-04-23T01:02:42.406Z,100.00
2023-04-23T01:05:04.920Z,100.00
2023-04-23T01:07:35.560Z,100.00
2023-04-23T01:07:42.332Z,100.00
2023-04-23T01:10:03.869Z,100.00
2023-04-23T01:12:30.242Z,100.00
2023-04-23T01:12:42.298Z,100.00
2023-04-23T01:14:56.799Z,100.00
2023-04-23T01:17:23.418Z,100.00
2023-04-23T01:17:42.355Z,100.00
2023-04-23T01:19:49.936Z,100.00
2023-04-23T01:22:17.126Z,100.00
2023-04-23T01:22:42.295Z,100.00
2023-04-23T01:24:43.739Z,100.00
2023-04-23T01:27:11.068Z,100.00
2023-04-23T01:27:42.312Z,100.00
2023-04-23T01:29:38.913Z,100.00
2023-04-23T01:32:05.659Z,100.00
2023-04-23T01:32:42.442Z,100.00
2023-04-23T01:34:32.710Z,100.00
2023-04-23T01:36:59.944Z,100.00
2023-04-23T01:37:42.456Z,100.00
2023-04-23T01:39:26.370Z,100.00
2023-04-23T01:41:53.377Z,100.00
2023-04-23T01:42:42.457Z,100.00
2023-04-23T01:44:19.894Z,100.00
2023-04-23T01:46:46.804Z,100.00
2023-04-23T01:47:42.561Z,100.00
2023-04-23T01:49:13.408Z,100.00
2023-04-23T01:51:40.064Z,100.00
2023-04-23T01:52:42.563Z,100.00
2023-04-23T01:54:06.510Z,100.00
2023-04-23T01:56:35.176Z,100.00
2023-04-23T01:57:42.550Z,100.00
2023-04-23T01:59:01.749Z,100.00
2023-04-23T02:01:54.376Z,100.00
2023-04-23T02:02:42.902Z,100.00
2023-04-23T02:04:20.838Z,100.00
2023-04-23T02:06:50.466Z,100.00
2023-04-23T02:07:42.610Z,100.00
2023-04-23T02:09:16.883Z,100.00
2023-04-23T02:11:43.281Z,100.00
2023-04-23T02:12:42.685Z,100.00
2023-04-23T02:14:10.355Z,100.00
2023-04-23T02:16:36.760Z,100.00
2023-04-23T02:17:42.726Z,100.00
2023-04-23T02:19:03.517Z,100.00
2023-04-23T02:21:29.998Z,100.00
2023-04-23T02:22:42.710Z,100.00
2023-04-23T02:23:56.368Z,100.00
2023-04-23T02:26:24.908Z,100.00
2023-04-23T02:27:42.774Z,100.00
2023-04-23T02:28:51.250Z,100.00
2023-04-23T02:31:17.824Z,100.00
2023-04-23T02:32:42.776Z,100.00
2023-04-23T02:33:44.227Z,100.00
2023-04-23T02:36:13.251Z,100.00
2023-04-23T02:37:42.761Z,100.00
2023-04-23T02:38:42.501Z,100.00
2023-04-23T02:41:08.970Z,100.00
2023-04-23T02:42:43.990Z,100.00
2023-04-23T02:43:35.412Z,100.00
2023-04-23T02:46:07.960Z,100.00
2023-04-23T02:47:42.734Z,100.00
2023-04-23T02:48:39.983Z,100.00
2023-04-23T02:51:07.823Z,100.00
2023-04-23T02:52:42.735Z,100.00
2023-04-23T02:53:34.164Z,100.00
2023-04-23T02:56:01.521Z,100.00
2023-04-23T02:57:42.735Z,100.00
2023-04-23T02:58:27.966Z,100.00
2023-04-23T03:00:54.524Z,100.00
2023-04-23T03:02:42.958Z,100.00
2023-04-23T03:03:21.212Z,100.00
2023-04-23T03:05:48.093Z,100.00
2023-04-23T03:07:42.724Z,100.00
2023-04-23T03:08:14.817Z,100.00
2023-04-23T03:10:41.191Z,100.00
2023-04-23T03:12:42.740Z,100.00
2023-04-23T03:13:07.553Z,100.00
2023-04-23T03:15:33.923Z,100.00
2023-04-23T03:17:42.748Z,100.00
2023-04-23T03:18:01.466Z,100.00
2023-04-23T03:20:28.225Z,100.00
2023-04-23T03:22:42.728Z,100.00
2023-04-23T03:22:54.581Z,100.00
2023-04-23T03:25:22.385Z,100.00
2023-04-23T03:27:42.711Z,100.00
2023-04-23T03:27:48.824Z,100.00
2023-04-23T03:30:15.136Z,100.00
2023-04-23T03:32:41.557Z,100.00
2023-04-23T03:32:42.848Z,100.00
2023-04-23T03:35:09.481Z,100.00
2023-04-23T03:37:35.790Z,100.00
2023-04-23T03:37:42.726Z,100.00
2023-04-23T03:40:07.548Z,100.00
2023-04-23T03:42:34.165Z,100.00
2023-04-23T03:42:42.789Z,100.00
2023-04-23T03:45:01.044Z,100.00
2023-04-23T03:47:27.434Z,100.00
2023-04-23T03:47:42.809Z,100.00
2023-04-23T03:49:54.912Z,100.00
2023-04-23T03:52:23.351Z,100.00
2023-04-23T03:52:42.734Z,100.00
2023-04-23T03:54:49.841Z,100.00
2023-04-23T03:57:16.471Z,100.00
2023-04-23T03:57:42.791Z,100.00
2023-04-23T03:59:43.025Z,100.00
2023-04-23T04:02:09.529Z,100.00
2023-04-23T04:02:43.943Z,100.00
2023-04-23T04:04:38.326Z,100.00
2023-04-23T04:07:07.588Z,100.00
2023-04-23T04:07:42.702Z,100.00
2023-04-23T04:09:34.044Z,100.00
2023-04-23T04:12:00.428Z,100.00
2023-04-23T04:12:42.774Z,100.00
2023-04-23T04:14:28.852Z,100.00
2023-04-23T04:16:55.384Z,100.00
2023-04-23T04:17:42.812Z,100.00
2023-04-23T04:19:21.761Z,100.00
2023-04-23T04:21:48.306Z,100.00
2023-04-23T04:22:42.766Z,100.00
2023-04-23T04:24:14.830Z,100.00
2023-04-23T04:26:42.008Z,100.00
2023-04-23T04:27:42.726Z,100.00
2023-04-23T04:29:10.451Z,100.00
2023-04-23T04:31:37.457Z,100.00
2023-04-23T04:32:42.729Z,100.00
2023-04-23T04:34:04.069Z,100.00
2023-04-23T04:36:30.519Z,100.00
2023-04-23T04:37:42.729Z,100.00
2023-04-23T04:38:58.651Z,100.00
2023-04-23T04:41:25.953Z,100.00
2023-04-23T04:42:42.742Z,100.00
2023-04-23T04:43:52.427Z,100.00
2023-04-23T04:46:21.707Z,100.00
2023-04-23T04:47:42.736Z,100.00
2023-04-23T04:48:48.523Z,100.00
2023-04-23T04:51:15.446Z,100.00
2023-04-23T04:52:42.832Z,100.00
2023-04-23T04:53:41.916Z,100.00
2023-04-23T04:56:08.535Z,100.00
2023-04-23T04:57:42.759Z,100.00
2023-04-23T04:58:35.090Z,100.00
2023-04-23T05:01:01.646Z,100.00
2023-04-23T05:02:42.915Z,100.00
2023-04-23T05:03:28.426Z,100.00
2023-04-23T05:05:56.332Z,100.00
2023-04-23T05:07:42.748Z,100.00
2023-04-23T05:08:22.696Z,100.00
2023-04-23T05:10:50.444Z,100.00
2023-04-23T05:12:42.707Z,100.00
2023-04-23T05:13:17.413Z,100.00
2023-04-23T05:15:43.881Z,100.00
2023-04-23T05:17:42.786Z,100.00
2023-04-23T05:18:10.818Z,100.00
2023-04-23T05:20:38.065Z,100.00
2023-04-23T05:22:42.736Z,100.00
2023-04-23T05:23:04.456Z,100.00
2023-04-23T05:25:32.383Z,100.00
2023-04-23T05:27:42.760Z,100.00
2023-04-23T05:27:58.726Z,100.00
2023-04-23T05:30:25.239Z,100.00
2023-04-23T05:32:42.764Z,100.00
2023-04-23T05:32:51.599Z,100.00
2023-04-23T05:35:18.020Z,100.00
2023-04-23T05:37:42.725Z,100.00
2023-04-23T05:37:44.435Z,100.00
2023-04-23T05:40:11.118Z,100.00
2023-04-23T05:42:37.657Z,100.00
2023-04-23T05:42:42.743Z,100.00
2023-04-23T05:45:06.632Z,100.00
2023-04-23T05:47:34.401Z,100.00
2023-04-23T05:47:42.765Z,100.00
2023-04-23T05:50:01.696Z,100.00
2023-04-23T05:52:31.366Z,100.00
2023-04-23T05:52:42.717Z,100.00
2023-04-23T05:54:57.771Z,100.00
2023-04-23T05:57:24.187Z,100.00
2023-04-23T05:57:42.726Z,100.00
2023-04-23T05:59:50.867Z,100.00
2023-04-23T06:02:17.425Z,100.00
2023-04-23T06:02:42.897Z,100.00
2023-04-23T06:04:46.771Z,100.00
2023-04-23T06:07:15.154Z,100.00
2023-04-23T06:07:42.773Z,100.00
2023-04-23T06:09:41.634Z,100.00
2023-04-23T06:12:08.031Z,100.00
2023-04-23T06:12:42.746Z,100.00
2023-04-23T06:14:34.371Z,100.00
2023-04-23T06:17:00.718Z,100.00
2023-04-23T06:17:42.768Z,100.00
2023-04-23T06:19:27.803Z,100.00
2023-04-23T06:21:54.481Z,100.00
2023-04-23T06:22:42.748Z,100.00
2023-04-23T06:24:20.831Z,100.00
2023-04-23T06:26:47.191Z,100.00
2023-04-23T06:27:42.755Z,100.00
2023-04-23T06:29:13.499Z,100.00
2023-04-23T06:31:41.513Z,100.00
2023-04-23T06:32:42.833Z,100.00
2023-04-23T06:34:08.001Z,100.00
2023-04-23T06:36:35.165Z,100.00
2023-04-23T06:37:42.736Z,100.00
2023-04-23T06:39:01.554Z,100.00
2023-04-23T06:41:28.041Z,100.00
2023-04-23T06:42:42.772Z,100.00
2023-04-23T06:43:54.369Z,100.00
2023-04-23T06:46:20.736Z,100.00
2023-04-23T06:47:42.792Z,100.00
2023-04-23T06:48:47.126Z,100.00
2023-04-23T06:51:14.355Z,100.00
2023-04-23T06:52:42.739Z,100.00
2023-04-23T06:53:40.672Z,100.00
2023-04-23T06:56:07.775Z,100.00
2023-04-23T06:57:42.735Z,100.00
2023-04-23T06:58:34.239Z,100.00
2023-04-23T07:01:01.620Z,100.00
2023-04-23T07:02:42.806Z,100.00
2023-04-23T07:03:28.108Z,100.00
2023-04-23T07:05:54.721Z,100.00
2023-04-23T07:07:42.761Z,100.00
2023-04-23T07:08:21.742Z,100.00
2023-04-23T07:10:48.483Z,100.00
2023-04-23T07:12:42.787Z,100.00
2023-04-23T07:13:15.566Z,100.00
2023-04-23T07:15:42.384Z,100.00
2023-04-23T07:17:42.813Z,100.00
2023-04-23T07:18:09.480Z,100.00
2023-04-23T07:20:36.430Z,100.00
2023-04-23T07:22:42.774Z,100.00
2023-04-23T07:23:04.162Z,100.00
2023-04-23T07:25:31.329Z,100.00
2023-04-23T07:27:42.769Z,100.00
2023-04-23T07:27:58.021Z,100.00
2023-04-23T07:30:25.894Z,100.00
2023-04-23T07:32:42.821Z,100.00
2023-04-23T07:32:52.808Z,100.00
2023-04-23T07:35:19.578Z,100.00
2023-04-23T07:37:42.790Z,100.00
2023-04-23T07:37:46.114Z,100.00
2023-04-23T07:40:12.699Z,100.00
2023-04-23T07:42:39.573Z,100.00
2023-04-23T07:42:42.772Z,100.00
2023-04-23T07:45:06.511Z,100.00
2023-04-23T07:47:33.051Z,100.00
2023-04-23T07:47:43.045Z,100.00
2023-04-23T07:49:59.408Z,100.00
2023-04-23T07:52:25.878Z,100.00
2023-04-23T07:52:42.799Z,100.00
2023-04-23T07:54:52.215Z,100.00
2023-04-23T07:57:18.857Z,100.00
2023-04-23T07:57:42.773Z,100.00
2023-04-23T07:59:45.373Z,100.00
2023-04-23T08:02:11.790Z,100.00
2023-04-23T08:02:42.893Z,100.00
2023-04-23T08:04:38.414Z,100.00
2023-04-23T08:07:04.871Z,98.89
2023-04-23T08:07:42.771Z,98.89
2023-04-23T08:09:31.166Z,95.08
2023-04-23T08:11:57.711Z,93.80
2023-04-23T08:12:42.794Z,93.80
2023-04-23T08:14:24.062Z,92.49
2023-04-23T08:16:50.357Z,90.63
2023-04-23T08:17:42.810Z,90.63
2023-04-23T08:19:17.059Z,87.75
2023-04-23T08:21:43.470Z,85.91
2023-04-23T08:22:42.765Z,85.91
2023-04-23T08:24:09.980Z,83.55
2023-04-23T08:26:36.536Z,80.26
2023-04-23T08:27:42.761Z,80.26
2023-04-23T08:29:03.220Z,76.13
2023-04-23T08:31:32.501Z,75.24
2023-04-23T08:32:42.825Z,75.24
2023-04-23T08:33:59.247Z,72.98
2023-04-23T08:36:26.719Z,73.42
2023-04-23T08:37:42.773Z,73.42
2023-04-23T08:38:53.148Z,72.71
2023-04-23T08:41:23.345Z,71.88
2023-04-23T08:42:42.772Z,71.88
2023-04-23T08:44:01.783Z,70.56
2023-04-23T08:46:32.701Z,69.52
2023-04-23T08:47:42.835Z,69.52
2023-04-23T08:49:00.624Z,68.72
2023-04-23T08:51:32.565Z,67.11
2023-04-23T08:52:42.802Z,67.11
2023-04-23T08:54:05.566Z,67.71
2023-04-23T08:56:32.951Z,66.00
2023-04-23T08:57:42.750Z,66.00
2023-04-23T08:58:59.720Z,66.21
2023-04-23T09:01:26.196Z,66.90
2023-04-23T09:02:42.897Z,66.90
2023-04-23T09:03:53.744Z,65.95
2023-04-23T09:06:21.565Z,66.87
2023-04-23T09:07:42.778Z,66.87
2023-04-23T09:08:47.981Z,67.32
2023-04-23T09:11:15.693Z,70.26
2023-04-23T09:12:42.758Z,70.26
2023-04-23T09:13:42.116Z,71.90
2023-04-23T09:16:08.693Z,72.06
2023-04-23T09:17:42.816Z,72.06
2023-04-23T09:18:35.645Z,70.97
2023-04-23T09:21:04.239Z,68.46
2023-04-23T09:22:45.968Z,68.46
2023-04-23T09:23:32.054Z,67.95
2023-04-23T09:25:58.537Z,67.35
2023-04-23T09:27:42.782Z,67.35
2023-04-23T09:28:36.305Z,67.09
2023-04-23T09:31:05.510Z,67.58
2023-04-23T09:32:42.809Z,67.58
2023-04-23T09:33:35.698Z,66.97
2023-04-23T09:36:14.418Z,65.36
2023-04-23T09:37:42.790Z,65.36
2023-04-23T09:38:43.634Z,62.99
2023-04-23T09:41:24.339Z,61.06
2023-04-23T09:42:42.793Z,61.06
2023-04-23T09:43:53.663Z,61.98
2023-04-23T09:46:32.756Z,58.76
2023-04-23T09:47:42.820Z,58.76
2023-04-23T09:49:01.053Z,58.80
2023-04-23T09:51:28.229Z,59.69
2023-04-23T09:52:42.757Z,59.69
2023-04-23T09:53:54.723Z,59.52
2023-04-23T09:56:21.641Z,58.10
2023-04-23T09:57:42.773Z,58.10
2023-04-23T09:58:48.205Z,56.94
2023-04-23T10:01:15.340Z,56.51
2023-04-23T10:02:42.832Z,56.51
2023-04-23T10:03:45.211Z,55.49
2023-04-23T10:06:39.527Z,55.33
2023-04-23T10:07:42.774Z,55.33
2023-04-23T10:09:04.134Z,55.07
2023-04-23T10:11:30.693Z,54.20
2023-04-23T10:12:54.392Z,54.20
2023-04-23T10:13:57.243Z,54.70
2023-04-23T10:16:28.325Z,54.59
2023-04-23T10:17:42.787Z,54.59
2023-04-23T10:19:01.726Z,52.74
2023-04-23T10:21:36.430Z,52.78
2023-04-23T10:22:42.835Z,52.78
2023-04-23T10:24:11.678Z,52.69
2023-04-23T10:26:39.789Z,52.30
2023-04-23T10:27:53.163Z,52.30
2023-04-23T10:29:14.077Z,52.20
2023-04-23T10:31:41.507Z,51.53
2023-04-23T10:32:42.816Z,51.53
2023-04-23T10:34:10.406Z,51.64
2023-04-23T10:36:39.971Z,50.94
2023-04-23T10:37:42.846Z,50.94
2023-04-23T10:39:09.362Z,50.44
2023-04-23T10:41:38.589Z,51.53
2023-04-23T10:42:42.833Z,51.53
2023-04-23T10:44:07.123Z,50.39
2023-04-23T10:46:36.457Z,50.49
2023-04-23T10:47:42.869Z,50.49
2023-04-23T10:49:07.561Z,50.61
2023-04-23T10:52:42.771Z,50.39
2023-04-23T10:54:08.110Z,50.03
2023-04-23T10:56:34.716Z,50.77
2023-04-23T10:57:42.794Z,50.77
2023-04-23T10:59:01.943Z,50.62
2023-04-23T11:01:30.342Z,50.27
2023-04-23T11:02:42.981Z,50.27
2023-04-23T11:03:56.908Z,50.37
2023-04-23T11:06:48.121Z,50.26
2023-04-23T11:07:42.786Z,50.26
2023-04-23T11:09:37.390Z,48.67
2023-04-23T11:12:11.142Z,47.07
2023-04-23T11:12:42.774Z,47.07
2023-04-23T11:14:42.106Z,45.77
2023-04-23T11:17:12.282Z,47.46
2023-04-23T11:17:42.876Z,47.46
2023-04-23T11:19:41.229Z,47.84
2023-04-23T11:22:14.047Z,47.35
2023-04-23T11:22:42.812Z,47.35
2023-04-23T11:24:42.755Z,47.34
2023-04-23T11:27:12.703Z,47.78
2023-04-23T11:27:42.771Z,47.78
2023-04-23T11:29:41.031Z,47.62
2023-04-23T11:32:10.907Z,48.33
2023-04-23T11:32:42.970Z,48.33
2023-04-23T11:34:43.212Z,48.55
2023-04-23T11:37:11.356Z,47.62
2023-04-23T11:37:42.798Z,47.62
2023-04-23T11:39:38.964Z,48.43
2023-04-23T11:42:10.159Z,48.35
2023-04-23T11:42:42.831Z,48.35
2023-04-23T11:44:39.578Z,47.43
2023-04-23T11:47:12.939Z,47.13
2023-04-23T11:47:42.805Z,47.13
2023-04-23T11:49:44.078Z,46.86
2023-04-23T11:52:11.768Z,46.52
2023-04-23T11:52:42.796Z,46.52
2023-04-23T11:54:40.932Z,45.61
2023-04-23T11:57:08.363Z,46.22
2023-04-23T11:57:42.801Z,46.22
2023-04-23T11:59:34.832Z,44.86
2023-04-23T12:02:01.285Z,43.84
2023-04-23T12:02:42.842Z,43.84
2023-04-23T12:04:29.847Z,43.62
2023-04-23T12:06:58.039Z,43.87
2023-04-23T12:07:42.821Z,43.87
2023-04-23T12:09:27.144Z,43.36
2023-04-23T12:11:53.900Z,43.77
2023-04-23T12:12:42.809Z,43.77
2023-04-23T12:14:28.741Z,43.99
2023-04-23T12:16:57.063Z,43.81
2023-04-23T12:17:42.857Z,43.81
2023-04-23T12:19:28.423Z,42.44
2023-04-23T12:22:02.233Z,41.12
2023-04-23T12:22:42.812Z,41.12
2023-04-23T12:24:31.010Z,40.63
2023-04-23T12:27:00.524Z,41.05
2023-04-23T12:27:42.880Z,41.05
2023-04-23T12:29:29.862Z,41.66
2023-04-23T12:31:59.126Z,41.53
2023-04-23T12:32:42.852Z,41.53
2023-04-23T12:34:25.545Z,42.67
2023-04-23T12:36:54.307Z,41.33
2023-04-23T12:37:42.798Z,41.33
2023-04-23T12:39:33.999Z,41.49
2023-04-23T12:42:10.847Z,43.05
2023-04-23T12:42:42.814Z,43.05
2023-04-23T12:44:38.744Z,43.20
2023-04-23T12:47:17.643Z,42.96
2023-04-23T12:47:42.848Z,42.96
2023-04-23T12:49:44.552Z,42.01
2023-04-23T12:52:13.607Z,42.13
2023-04-23T12:52:43.883Z,42.13
2023-04-23T12:54:40.754Z,42.54
2023-04-23T12:57:10.942Z,42.39
2023-04-23T12:57:42.807Z,42.39
2023-04-23T12:59:37.349Z,41.60
2023-04-23T13:02:04.612Z,41.96
2023-04-23T13:02:43.044Z,41.96
2023-04-23T13:04:33.559Z,41.65
2023-04-23T13:07:00.480Z,41.76
2023-04-23T13:07:42.822Z,41.76
2023-04-23T13:09:28.410Z,41.67
2023-04-23T13:11:55.158Z,41.69
2023-04-23T13:12:42.812Z,41.69
2023-04-23T13:14:21.575Z,41.22
2023-04-23T13:16:48.966Z,42.57
2023-04-23T13:17:42.839Z,42.57
2023-04-23T13:19:17.153Z,43.00
2023-04-23T13:21:44.316Z,42.49
2023-04-23T13:22:42.817Z,42.49
2023-04-23T13:24:10.801Z,43.08
2023-04-23T13:26:37.536Z,44.02
2023-04-23T13:27:42.798Z,44.02
2023-04-23T13:29:04.041Z,44.14
2023-04-23T13:31:31.295Z,44.37
2023-04-23T13:32:42.923Z,44.37
2023-04-23T13:33:57.805Z,44.42
2023-04-23T13:36:24.511Z,44.27
2023-04-23T13:37:42.817Z,44.27
2023-04-23T13:38:51.023Z,43.46
2023-04-23T13:41:17.473Z,44.26
2023-04-23T13:42:42.916Z,44.26
2023-04-23T13:43:43.858Z,44.12
2023-04-23T13:46:10.349Z,43.84
2023-04-23T13:47:42.875Z,43.84
2023-04-23T13:48:36.748Z,43.65
2023-04-23T13:51:03.097Z,43.02
2023-04-23T13:52:42.781Z,43.02
2023-04-23T13:53:29.760Z,42.78
2023-04-23T13:55:56.818Z,42.69
2023-04-23T13:57:42.852Z,42.69
2023-04-23T13:58:25.966Z,43.28
2023-04-23T14:00:52.911Z,44.24
2023-04-23T14:02:42.901Z,44.24
2023-04-23T14:03:20.276Z,43.70
2023-04-23T14:05:46.664Z,43.01
2023-04-23T14:07:42.818Z,43.01
2023-04-23T14:08:15.229Z,44.24
2023-04-23T14:10:43.547Z,45.36
2023-04-23T14:12:42.823Z,45.36
2023-04-23T14:13:10.331Z,45.74
2023-04-23T14:15:36.925Z,47.10
2023-04-23T14:17:42.847Z,47.10
2023-04-23T14:18:03.529Z,44.72
2023-04-23T14:20:29.919Z,44.21
2023-04-23T14:22:42.826Z,44.21
2023-04-23T14:23:02.232Z,44.17
2023-04-23T14:25:39.851Z,44.29
2023-04-23T14:27:43.130Z,44.29
2023-04-23T14:28:39.095Z,44.10
2023-04-23T14:31:05.753Z,44.90
2023-04-23T14:32:42.969Z,44.90
2023-04-23T14:33:32.357Z,45.41
2023-04-23T14:35:58.780Z,46.31
2023-04-23T14:37:42.973Z,46.31
2023-04-23T14:38:26.769Z,46.56
2023-04-23T14:40:53.566Z,46.75
2023-04-23T14:42:42.968Z,46.75
2023-04-23T14:43:20.069Z,46.59
2023-04-23T14:45:46.962Z,47.78
2023-04-23T14:47:42.946Z,47.78
2023-04-23T14:48:13.416Z,47.73
2023-04-23T14:50:39.936Z,48.55
2023-04-23T14:52:42.962Z,48.55
2023-04-23T14:53:07.630Z,48.62
2023-04-23T14:55:34.306Z,49.53
2023-04-23T14:57:42.967Z,49.53
2023-04-23T14:58:00.741Z,49.91
2023-04-23T15:00:29.276Z,50.35
2023-04-23T15:02:43.021Z,50.35
2023-04-23T15:02:56.706Z,50.63
2023-04-23T15:05:23.436Z,51.81
2023-04-23T15:07:42.947Z,51.81
2023-04-23T15:07:51.377Z,53.76
2023-04-23T15:10:17.892Z,54.68
2023-04-23T15:12:42.975Z,54.68
2023-04-23T15:12:53.275Z,57.39
2023-04-23T15:15:37.036Z,59.13
2023-04-23T15:17:42.985Z,59.13
2023-04-23T15:18:07.549Z,62.88
2023-04-23T15:20:34.052Z,62.98
2023-04-23T15:22:43.038Z,62.98
2023-04-23T15:23:00.466Z,66.60
2023-04-23T15:25:26.862Z,67.20
2023-04-23T15:27:42.957Z,67.20
2023-04-23T15:27:57.631Z,68.91
2023-04-23T15:30:26.046Z,71.03
2023-04-23T15:32:42.973Z,71.03
2023-04-23T15:32:55.240Z,73.69
2023-04-23T15:35:22.763Z,74.98
2023-04-23T15:37:42.974Z,74.98
2023-04-23T15:37:49.595Z,78.96
2023-04-23T15:40:16.765Z,82.22
2023-04-23T15:42:44.503Z,84.89
2023-04-23T15:42:44.669Z,84.89
2023-04-23T15:45:12.450Z,86.64
2023-04-23T15:47:39.111Z,88.44
2023-04-23T15:47:42.984Z,88.44
2023-04-23T15:50:06.610Z,91.25
2023-04-23T15:52:33.381Z,92.58
2023-04-23T15:52:42.976Z,92.58
2023-04-23T15:55:00.408Z,95.95
2023-04-23T15:57:27.117Z,100.00
2023-04-23T15:57:42.942Z,100.00
2023-04-23T15:59:55.738Z,100.00
2023-04-23T16:02:22.612Z,100.00
2023-04-23T16:02:43.024Z,100.00
2023-04-23T16:04:50.852Z,100.00
2023-04-23T16:07:17.396Z,100.00
2023-04-23T16:07:43.017Z,100.00
2023-04-23T16:09:43.986Z,100.00
2023-04-23T16:12:10.810Z,100.00
2023-04-23T16:12:42.945Z,100.00
2023-04-23T16:14:37.288Z,100.00
2023-04-23T16:17:03.695Z,100.00
2023-04-23T16:17:42.964Z,100.00
2023-04-23T16:19:30.669Z,100.00
2023-04-23T16:21:57.071Z,100.00
2023-04-23T16:22:42.978Z,100.00
2023-04-23T16:24:24.498Z,100.00
2023-04-23T16:26:50.943Z,100.00
2023-04-23T16:27:42.945Z,100.00
2023-04-23T16:29:22.599Z,100.00
2023-04-23T16:31:49.629Z,100.00
2023-04-23T16:32:42.976Z,100.00
2023-04-23T16:34:16.225Z,100.00
2023-04-23T16:36:42.718Z,100.00
2023-04-23T16:37:42.972Z,100.00
2023-04-23T16:39:09.117Z,100.00
2023-04-23T16:41:35.857Z,100.00
2023-04-23T16:42:42.943Z,100.00
2023-04-23T16:44:02.206Z,100.00
2023-04-23T16:46:30.997Z,100.00
2023-04-23T16:47:42.977Z,100.00
2023-04-23T16:48:57.798Z,100.00
2023-04-23T16:51:24.728Z,100.00
2023-04-23T16:52:42.964Z,100.00
2023-04-23T16:53:51.173Z,100.00
2023-04-23T16:56:17.583Z,100.00
2023-04-23T16:57:42.976Z,100.00
2023-04-23T16:58:43.924Z,100.00
2023-04-23T17:01:10.825Z,100.00
2023-04-23T17:02:43.049Z,100.00
2023-04-23T17:03:39.063Z,100.00
2023-04-23T17:06:29.812Z,100.00
2023-04-23T17:07:42.955Z,100.00
2023-04-23T17:08:57.699Z,100.00
2023-04-23T17:11:27.291Z,100.00
2023-04-23T17:12:42.977Z,100.00
2023-04-23T17:13:54.861Z,100.00
2023-04-23T17:16:21.498Z,100.00
2023-04-23T17:17:43.009Z,100.00
2023-04-23T17:18:48.425Z,100.00
2023-04-23T17:21:14.846Z,100.00
2023-04-23T17:22:42.979Z,100.00
2023-04-23T17:23:41.158Z,100.00
2023-04-23T17:26:07.665Z,100.00
2023-04-23T17:27:42.946Z,100.00
2023-04-23T17:28:34.054Z,100.00
2023-04-23T17:31:01.206Z,100.00
2023-04-23T17:32:43.074Z,100.00
2023-04-23T17:33:27.783Z,100.00
2023-04-23T17:35:55.733Z,100.00
2023-04-23T17:37:42.985Z,100.00
2023-04-23T17:38:22.517Z,100.00
2023-04-23T17:40:49.821Z,100.00
2023-04-23T17:42:42.978Z,100.00
2023-04-23T17:43:17.160Z,100.00
2023-04-23T17:45:45.250Z,100.00
2023-04-23T17:47:42.985Z,100.00
2023-04-23T17:48:12.691Z,100.00
2023-04-23T17:50:39.481Z,100.00
2023-04-23T17:52:42.991Z,100.00
2023-04-23T17:53:06.057Z,100.00
2023-04-23T17:55:33.090Z,100.00
2023-04-23T17:57:42.994Z,100.00
2023-04-23T17:58:05.389Z,100.00
2023-04-23T18:00:36.550Z,100.00
2023-04-23T18:02:43.088Z,100.00
2023-04-23T18:03:03.982Z,100.00
2023-04-23T18:05:31.271Z,100.00
2023-04-23T18:07:42.964Z,100.00
2023-04-23T18:07:57.877Z,100.00
2023-04-23T18:10:24.378Z,100.00
2023-04-23T18:12:42.977Z,100.00
2023-04-23T18:12:51.098Z,100.00
2023-04-23T18:15:17.629Z,100.00
2023-04-23T18:17:44.779Z,100.00
2023-04-23T18:17:45.014Z,100.00
2023-04-23T18:20:11.384Z,100.00
2023-04-23T18:22:38.438Z,100.00
2023-04-23T18:22:42.931Z,100.00
2023-04-23T18:25:06.573Z,100.00
2023-04-23T18:27:34.355Z,100.00
2023-04-23T18:27:42.959Z,100.00
2023-04-23T18:30:01.031Z,100.00
2023-04-23T18:32:34.411Z,100.00
2023-04-23T18:32:43.163Z,100.00
2023-04-23T18:35:02.241Z,100.00
2023-04-23T18:37:55.021Z,100.00
2023-04-23T18:37:55.174Z,100.00
2023-04-23T18:40:21.512Z,100.00
2023-04-23T18:42:42.978Z,100.00
2023-04-23T18:42:47.870Z,100.00
2023-04-23T18:45:14.254Z,100.00
2023-04-23T18:47:49.911Z,100.00
2023-04-23T18:47:50.142Z,100.00
2023-04-23T18:50:41.455Z,100.00
2023-04-23T18:52:42.958Z,100.00
2023-04-23T18:53:07.932Z,100.00
2023-04-23T18:55:34.367Z,100.00
2023-04-23T18:57:42.957Z,100.00
2023-04-23T18:58:01.066Z,100.00
2023-04-23T19:00:27.581Z,100.00
2023-04-23T19:02:43.162Z,100.00
2023-04-23T19:02:54.122Z,100.00
2023-04-23T19:05:20.699Z,100.00
2023-04-23T19:07:43.025Z,100.00
2023-04-23T19:07:48.337Z,100.00
2023-04-23T19:10:17.999Z,100.00
2023-04-23T19:12:42.998Z,100.00
2023-04-23T19:12:44.686Z,100.00
2023-04-23T19:15:11.619Z,100.00
2023-04-23T19:17:38.395Z,100.00
2023-04-23T19:17:43.002Z,100.00
2023-04-23T19:20:06.196Z,100.00
2023-04-23T19:22:32.523Z,100.00
2023-04-23T19:22:42.943Z,100.00
2023-04-23T19:24:58.885Z,100.00
2023-04-23T19:27:25.294Z,100.00
2023-04-23T19:27:42.959Z,100.00
2023-04-23T19:29:53.333Z,100.00
2023-04-23T19:32:19.929Z,100.00
2023-04-23T19:32:43.028Z,100.00
2023-04-23T19:34:46.267Z,100.00
2023-04-23T19:37:12.725Z,100.00
2023-04-23T19:37:42.973Z,100.00
2023-04-23T19:39:39.234Z,100.00
2023-04-23T19:42:06.932Z,100.00
2023-04-23T19:42:42.975Z,100.00
2023-04-23T19:44:33.908Z,100.00
2023-04-23T19:47:00.350Z,100.00
2023-04-23T19:47:42.979Z,100.00
2023-04-23T19:49:26.752Z,100.00
2023-04-23T19:51:54.767Z,100.00
2023-04-23T19:52:42.969Z,100.00
2023-04-23T19:54:22.897Z,100.00
2023-04-23T19:56:51.533Z,100.00
2023-04-23T19:57:42.967Z,100.00
2023-04-23T19:59:20.884Z,100.00
2023-04-23T20:01:48.093Z,100.00
2023-04-23T20:02:43.109Z,100.00
2023-04-23T20:04:14.763Z,100.00
2023-04-23T20:06:41.473Z,100.00
2023-04-23T20:07:42.992Z,100.00
2023-04-23T20:09:08.018Z,100.00
2023-04-23T20:11:35.725Z,100.00
2023-04-23T20:12:43.045Z,100.00
2023-04-23T20:14:03.142Z,100.00
2023-04-23T20:16:29.615Z,100.00
2023-04-23T20:17:42.971Z,100.00
2023-04-23T20:18:56.550Z,100.00
2023-04-23T20:21:24.065Z,100.00
2023-04-23T20:22:42.991Z,100.00
2023-04-23T20:23:53.513Z,100.00
2023-04-23T20:26:20.207Z,100.00
2023-04-23T20:27:42.945Z,100.00
2023-04-23T20:28:48.227Z,100.00
2023-04-23T20:31:15.470Z,100.00
2023-04-23T20:32:43.031Z,100.00
2023-04-23T20:33:41.778Z,100.00
2023-04-23T20:36:11.392Z,100.00
2023-04-23T20:37:42.976Z,100.00
2023-04-23T20:38:38.135Z,100.00
2023-04-23T20:41:10.091Z,100.00
2023-04-23T20:42:42.995Z,100.00
2023-04-23T20:43:39.556Z,100.00
2023-04-23T20:46:09.081Z,100.00
2023-04-23T20:47:42.980Z,100.00
2023-04-23T20:48:36.687Z,100.00
2023-04-23T20:51:03.339Z,100.00
2023-04-23T20:52:43.019Z,100.00
2023-04-23T20:53:29.755Z,100.00